sensor_id;sensor_type;location;lat;lon;timestamp;P1;durP1;ratioP1;P2;durP2;ratioP2
63016;SDS011;50274;45.640;11.756;2023-04-16T00:00:48;5.20;;;2.10;;
63016;SDS011;50274;45.640;11.756;2023-04-16T00:03:14;4.85;;;1.88;;
63016;SDS011;50274;45.640;11.756;2023-04-16T00:05:40;4.70;;;1.75;;
63016;SDS011;50274;45.640;11.756;2023-04-16T00:08:11;5.20;;;1.63;;
63016;SDS011;50274;45.640;11.756;2023-04-16T00:10:37;5.75;;;1.85;;
63016;SDS011;50274;45.640;11.756;2023-04-16T00:13:02;4.80;;;1.70;;
63016;SDS011;50274;45.640;11.756;2023-04-16T00:15:28;4.27;;;1.67;;
63016;SDS011;50274;45.640;11.756;2023-04-16T00:17:54;4.80;;;1.75;;
63016;SDS011;50274;45.640;11.756;2023-04-16T00:20:20;4.40;;;1.73;;
63016;SDS011;50274;45.640;11.756;2023-04-16T00:22:46;4.33;;;1.60;;
63016;SDS011;50274;45.640;11.756;2023-04-16T00:25:16;6.07;;;1.88;;
63016;SDS011;50274;45.640;11.756;2023-04-16T00:27:42;4.55;;;1.33;;
63016;SDS011;50274;45.640;11.756;2023-04-16T00:30:08;4.00;;;1.60;;
63016;SDS011;50274;45.640;11.756;2023-04-16T00:32:34;5.05;;;1.63;;
63016;SDS011;50274;45.640;11.756;2023-04-16T00:35:02;4.40;;;1.60;;
63016;SDS011;50274;45.640;11.756;2023-04-16T00:37:28;4.75;;;1.65;;
63016;SDS011;50274;45.640;11.756;2023-04-16T00:39:54;4.55;;;2.00;;
63016;SDS011;50274;45.640;11.756;2023-04-16T00:42:20;6.00;;;1.73;;
63016;SDS011;50274;45.640;11.756;2023-04-16T00:44:49;5.22;;;1.90;;
63016;SDS011;50274;45.640;11.756;2023-04-16T00:47:15;5.20;;;2.05;;
63016;SDS011;50274;45.640;11.756;2023-04-16T00:49:43;4.57;;;1.97;;
63016;SDS011;50274;45.640;11.756;2023-04-16T00:52:10;4.80;;;1.88;;
63016;SDS011;50274;45.640;11.756;2023-04-16T00:54:36;6.07;;;2.15;;
63016;SDS011;50274;45.640;11.756;2023-04-16T00:57:02;5.45;;;2.45;;
63016;SDS011;50274;45.640;11.756;2023-04-16T00:59:28;5.10;;;1.83;;
63016;SDS011;50274;45.640;11.756;2023-04-16T01:01:54;5.70;;;2.22;;
63016;SDS011;50274;45.640;11.756;2023-04-16T01:04:22;6.47;;;2.13;;
63016;SDS011;50274;45.640;11.756;2023-04-16T01:06:48;4.47;;;1.90;;
63016;SDS011;50274;45.640;11.756;2023-04-16T01:09:16;5.70;;;2.35;;
63016;SDS011;50274;45.640;11.756;2023-04-16T01:11:47;5.57;;;2.30;;
63016;SDS011;50274;45.640;11.756;2023-04-16T01:14:13;5.60;;;2.20;;
63016;SDS011;50274;45.640;11.756;2023-04-16T01:16:39;5.33;;;2.00;;
63016;SDS011;50274;45.640;11.756;2023-04-16T01:19:07;5.28;;;2.30;;
63016;SDS011;50274;45.640;11.756;2023-04-16T01:21:37;6.57;;;1.95;;
63016;SDS011;50274;45.640;11.756;2023-04-16T01:24:03;5.13;;;1.80;;
63016;SDS011;50274;45.640;11.756;2023-04-16T01:26:29;5.87;;;1.90;;
63016;SDS011;50274;45.640;11.756;2023-04-16T01:28:56;4.38;;;1.90;;
63016;SDS011;50274;45.640;11.756;2023-04-16T01:31:24;4.88;;;2.20;;
63016;SDS011;50274;45.640;11.756;2023-04-16T01:33:52;4.45;;;1.80;;
63016;SDS011;50274;45.640;11.756;2023-04-16T01:36:18;5.07;;;1.87;;
63016;SDS011;50274;45.640;11.756;2023-04-16T01:38:48;4.93;;;2.00;;
63016;SDS011;50274;45.640;11.756;2023-04-16T01:41:14;5.05;;;2.17;;
63016;SDS011;50274;45.640;11.756;2023-04-16T01:43:40;5.25;;;2.00;;
63016;SDS011;50274;45.640;11.756;2023-04-16T01:46:13;5.90;;;2.17;;
63016;SDS011;50274;45.640;11.756;2023-04-16T01:48:42;5.17;;;2.17;;
63016;SDS011;50274;45.640;11.756;2023-04-16T01:51:07;5.72;;;2.17;;
63016;SDS011;50274;45.640;11.756;2023-04-16T01:53:36;5.47;;;2.33;;
63016;SDS011;50274;45.640;11.756;2023-04-16T01:56:02;6.88;;;2.40;;
63016;SDS011;50274;45.640;11.756;2023-04-16T01:58:28;5.37;;;2.23;;
63016;SDS011;50274;45.640;11.756;2023-04-16T02:00:57;5.00;;;2.10;;
63016;SDS011;50274;45.640;11.756;2023-04-16T02:03:23;5.05;;;2.30;;
63016;SDS011;50274;45.640;11.756;2023-04-16T02:05:52;5.95;;;2.50;;
63016;SDS011;50274;45.640;11.756;2023-04-16T02:08:20;7.15;;;2.30;;
63016;SDS011;50274;45.640;11.756;2023-04-16T02:10:46;7.67;;;2.33;;
63016;SDS011;50274;45.640;11.756;2023-04-16T02:13:17;6.00;;;2.13;;
63016;SDS011;50274;45.640;11.756;2023-04-16T02:15:44;7.47;;;2.90;;
63016;SDS011;50274;45.640;11.756;2023-04-16T02:18:14;6.43;;;2.58;;
63016;SDS011;50274;45.640;11.756;2023-04-16T02:20:40;5.97;;;2.83;;
63016;SDS011;50274;45.640;11.756;2023-04-16T02:23:10;4.47;;;2.20;;
63016;SDS011;50274;45.640;11.756;2023-04-16T02:25:42;6.15;;;2.60;;
63016;SDS011;50274;45.640;11.756;2023-04-16T02:28:11;5.80;;;2.67;;
63016;SDS011;50274;45.640;11.756;2023-04-16T02:30:40;7.28;;;2.35;;
63016;SDS011;50274;45.640;11.756;2023-04-16T02:33:11;4.75;;;2.50;;
63016;SDS011;50274;45.640;11.756;2023-04-16T02:35:37;4.80;;;2.07;;
63016;SDS011;50274;45.640;11.756;2023-04-16T02:38:04;6.03;;;2.08;;
63016;SDS011;50274;45.640;11.756;2023-04-16T02:40:32;5.63;;;2.20;;
63016;SDS011;50274;45.640;11.756;2023-04-16T02:42:58;5.22;;;2.38;;
63016;SDS011;50274;45.640;11.756;2023-04-16T02:45:24;5.28;;;2.45;;
63016;SDS011;50274;45.640;11.756;2023-04-16T02:47:50;4.93;;;2.20;;
63016;SDS011;50274;45.640;11.756;2023-04-16T02:50:16;4.78;;;1.98;;
63016;SDS011;50274;45.640;11.756;2023-04-16T02:52:44;5.38;;;2.30;;
63016;SDS011;50274;45.640;11.756;2023-04-16T02:55:13;6.13;;;2.17;;
63016;SDS011;50274;45.640;11.756;2023-04-16T02:57:39;5.75;;;2.60;;
63016;SDS011;50274;45.640;11.756;2023-04-16T03:00:06;5.40;;;2.15;;
63016;SDS011;50274;45.640;11.756;2023-04-16T03:02:33;4.68;;;2.03;;
63016;SDS011;50274;45.640;11.756;2023-04-16T03:05:02;5.03;;;2.05;;
63016;SDS011;50274;45.640;11.756;2023-04-16T03:07:28;5.87;;;2.30;;
63016;SDS011;50274;45.640;11.756;2023-04-16T03:09:54;6.15;;;2.50;;
63016;SDS011;50274;45.640;11.756;2023-04-16T03:12:20;6.18;;;2.28;;
63016;SDS011;50274;45.640;11.756;2023-04-16T03:14:45;5.27;;;2.20;;
63016;SDS011;50274;45.640;11.756;2023-04-16T03:17:13;5.35;;;2.55;;
63016;SDS011;50274;45.640;11.756;2023-04-16T03:19:39;6.15;;;2.65;;
63016;SDS011;50274;45.640;11.756;2023-04-16T03:22:07;5.50;;;2.40;;
63016;SDS011;50274;45.640;11.756;2023-04-16T03:24:33;5.75;;;2.60;;
63016;SDS011;50274;45.640;11.756;2023-04-16T03:27:01;6.88;;;2.65;;
63016;SDS011;50274;45.640;11.756;2023-04-16T03:29:27;6.10;;;2.47;;
63016;SDS011;50274;45.640;11.756;2023-04-16T03:31:55;5.90;;;2.50;;
63016;SDS011;50274;45.640;11.756;2023-04-16T03:34:24;6.25;;;2.30;;
63016;SDS011;50274;45.640;11.756;2023-04-16T03:36:52;4.90;;;2.42;;
63016;SDS011;50274;45.640;11.756;2023-04-16T03:39:18;5.75;;;2.40;;
63016;SDS011;50274;45.640;11.756;2023-04-16T03:41:51;6.30;;;2.50;;
63016;SDS011;50274;45.640;11.756;2023-04-16T03:44:16;6.20;;;2.30;;
63016;SDS011;50274;45.640;11.756;2023-04-16T03:46:45;4.93;;;2.20;;
63016;SDS011;50274;45.640;11.756;2023-04-16T03:49:10;6.30;;;2.40;;
63016;SDS011;50274;45.640;11.756;2023-04-16T03:51:36;5.87;;;2.57;;
63016;SDS011;50274;45.640;11.756;2023-04-16T03:54:02;5.32;;;2.40;;
63016;SDS011;50274;45.640;11.756;2023-04-16T03:56:28;6.00;;;2.57;;
63016;SDS011;50274;45.640;11.756;2023-04-16T03:58:54;5.73;;;2.40;;
63016;SDS011;50274;45.640;11.756;2023-04-16T04:01:22;5.82;;;2.60;;
63016;SDS011;50274;45.640;11.756;2023-04-16T04:03:51;5.90;;;2.95;;
63016;SDS011;50274;45.640;11.756;2023-04-16T04:06:17;5.30;;;2.50;;
63016;SDS011;50274;45.640;11.756;2023-04-16T04:08:45;5.20;;;2.30;;
63016;SDS011;50274;45.640;11.756;2023-04-16T04:11:13;5.13;;;2.40;;
63016;SDS011;50274;45.640;11.756;2023-04-16T04:13:39;5.30;;;1.98;;
63016;SDS011;50274;45.640;11.756;2023-04-16T04:16:05;5.70;;;2.03;;
63016;SDS011;50274;45.640;11.756;2023-04-16T04:18:31;5.63;;;2.53;;
63016;SDS011;50274;45.640;11.756;2023-04-16T04:21:06;6.63;;;2.97;;
63016;SDS011;50274;45.640;11.756;2023-04-16T04:23:35;5.93;;;2.40;;
63016;SDS011;50274;45.640;11.756;2023-04-16T04:26:01;5.90;;;2.97;;
63016;SDS011;50274;45.640;11.756;2023-04-16T04:28:28;7.30;;;3.23;;
63016;SDS011;50274;45.640;11.756;2023-04-16T04:30:55;11.80;;;4.47;;
63016;SDS011;50274;45.640;11.756;2023-04-16T04:33:24;9.88;;;4.22;;
63016;SDS011;50274;45.640;11.756;2023-04-16T04:35:53;8.25;;;3.78;;
63016;SDS011;50274;45.640;11.756;2023-04-16T04:38:22;7.10;;;3.25;;
63016;SDS011;50274;45.640;11.756;2023-04-16T04:40:51;6.67;;;3.37;;
63016;SDS011;50274;45.640;11.756;2023-04-16T04:43:18;6.13;;;2.80;;
63016;SDS011;50274;45.640;11.756;2023-04-16T04:45:46;6.05;;;2.95;;
63016;SDS011;50274;45.640;11.756;2023-04-16T04:48:13;6.85;;;3.47;;
63016;SDS011;50274;45.640;11.756;2023-04-16T04:50:40;7.75;;;4.00;;
63016;SDS011;50274;45.640;11.756;2023-04-16T04:53:09;7.00;;;3.53;;
63016;SDS011;50274;45.640;11.756;2023-04-16T04:55:38;7.82;;;3.45;;
63016;SDS011;50274;45.640;11.756;2023-04-16T04:58:04;6.18;;;3.22;;
63016;SDS011;50274;45.640;11.756;2023-04-16T05:00:31;5.68;;;2.88;;
63016;SDS011;50274;45.640;11.756;2023-04-16T05:03:05;6.30;;;3.40;;
63016;SDS011;50274;45.640;11.756;2023-04-16T05:05:34;6.73;;;3.23;;
63016;SDS011;50274;45.640;11.756;2023-04-16T05:08:03;6.80;;;3.42;;
63016;SDS011;50274;45.640;11.756;2023-04-16T05:10:29;6.55;;;3.45;;
63016;SDS011;50274;45.640;11.756;2023-04-16T05:12:55;5.97;;;3.35;;
63016;SDS011;50274;45.640;11.756;2023-04-16T05:15:23;6.30;;;3.15;;
63016;SDS011;50274;45.640;11.756;2023-04-16T05:17:49;6.47;;;3.27;;
63016;SDS011;50274;45.640;11.756;2023-04-16T05:20:17;7.22;;;3.03;;
63016;SDS011;50274;45.640;11.756;2023-04-16T05:22:43;5.95;;;3.03;;
63016;SDS011;50274;45.640;11.756;2023-04-16T05:25:11;6.88;;;2.95;;
63016;SDS011;50274;45.640;11.756;2023-04-16T05:27:37;5.87;;;2.80;;
63016;SDS011;50274;45.640;11.756;2023-04-16T05:30:03;5.65;;;2.70;;
63016;SDS011;50274;45.640;11.756;2023-04-16T05:32:29;7.40;;;3.13;;
63016;SDS011;50274;45.640;11.756;2023-04-16T05:34:55;7.17;;;3.10;;
63016;SDS011;50274;45.640;11.756;2023-04-16T05:37:23;8.00;;;3.83;;
63016;SDS011;50274;45.640;11.756;2023-04-16T05:39:49;9.20;;;3.58;;
63016;SDS011;50274;45.640;11.756;2023-04-16T05:42:19;7.63;;;3.27;;
63016;SDS011;50274;45.640;11.756;2023-04-16T05:44:45;6.70;;;2.80;;
63016;SDS011;50274;45.640;11.756;2023-04-16T05:47:13;6.75;;;3.20;;
63016;SDS011;50274;45.640;11.756;2023-04-16T05:49:42;7.22;;;2.85;;
63016;SDS011;50274;45.640;11.756;2023-04-16T05:52:10;6.05;;;2.50;;
63016;SDS011;50274;45.640;11.756;2023-04-16T05:54:39;6.13;;;2.60;;
63016;SDS011;50274;45.640;11.756;2023-04-16T05:57:07;5.60;;;2.42;;
63016;SDS011;50274;45.640;11.756;2023-04-16T05:59:35;5.88;;;2.60;;
63016;SDS011;50274;45.640;11.756;2023-04-16T06:02:04;4.72;;;2.30;;
63016;SDS011;50274;45.640;11.756;2023-04-16T06:04:30;6.32;;;3.03;;
63016;SDS011;50274;45.640;11.756;2023-04-16T06:06:56;6.33;;;3.07;;
63016;SDS011;50274;45.640;11.756;2023-04-16T06:09:24;6.90;;;3.13;;
63016;SDS011;50274;45.640;11.756;2023-04-16T06:11:53;5.35;;;2.70;;
63016;SDS011;50274;45.640;11.756;2023-04-16T06:14:20;5.57;;;2.70;;
63016;SDS011;50274;45.640;11.756;2023-04-16T06:16:48;6.40;;;2.80;;
63016;SDS011;50274;45.640;11.756;2023-04-16T06:19:16;5.88;;;2.80;;
63016;SDS011;50274;45.640;11.756;2023-04-16T06:21:42;7.55;;;2.90;;
63016;SDS011;50274;45.640;11.756;2023-04-16T06:24:08;5.73;;;2.90;;
63016;SDS011;50274;45.640;11.756;2023-04-16T06:26:39;5.70;;;2.40;;
63016;SDS011;50274;45.640;11.756;2023-04-16T06:29:05;5.28;;;2.28;;
63016;SDS011;50274;45.640;11.756;2023-04-16T06:31:31;4.70;;;1.90;;
63016;SDS011;50274;45.640;11.756;2023-04-16T06:34:00;5.07;;;1.98;;
63016;SDS011;50274;45.640;11.756;2023-04-16T06:36:25;5.07;;;1.67;;
63016;SDS011;50274;45.640;11.756;2023-04-16T06:38:53;3.90;;;1.40;;
63016;SDS011;50274;45.640;11.756;2023-04-16T06:41:21;5.82;;;1.50;;
63016;SDS011;50274;45.640;11.756;2023-04-16T06:43:51;4.63;;;1.52;;
63016;SDS011;50274;45.640;11.756;2023-04-16T06:46:17;4.05;;;1.25;;
63016;SDS011;50274;45.640;11.756;2023-04-16T06:48:45;4.53;;;1.57;;
63016;SDS011;50274;45.640;11.756;2023-04-16T06:51:11;5.13;;;2.03;;
63016;SDS011;50274;45.640;11.756;2023-04-16T06:53:37;5.55;;;1.80;;
63016;SDS011;50274;45.640;11.756;2023-04-16T06:56:03;6.90;;;1.80;;
63016;SDS011;50274;45.640;11.756;2023-04-16T06:58:29;4.70;;;1.98;;
63016;SDS011;50274;45.640;11.756;2023-04-16T07:00:57;5.15;;;2.00;;
63016;SDS011;50274;45.640;11.756;2023-04-16T07:03:23;8.10;;;2.00;;
63016;SDS011;50274;45.640;11.756;2023-04-16T07:05:49;6.63;;;2.27;;
63016;SDS011;50274;45.640;11.756;2023-04-16T07:08:15;5.72;;;1.77;;
63016;SDS011;50274;45.640;11.756;2023-04-16T07:10:41;4.55;;;1.70;;
63016;SDS011;50274;45.640;11.756;2023-04-16T07:13:09;5.93;;;2.10;;
63016;SDS011;50274;45.640;11.756;2023-04-16T07:15:37;5.93;;;1.90;;
63016;SDS011;50274;45.640;11.756;2023-04-16T07:18:03;5.15;;;1.80;;
63016;SDS011;50274;45.640;11.756;2023-04-16T07:20:29;5.35;;;1.80;;
63016;SDS011;50274;45.640;11.756;2023-04-16T07:22:54;7.20;;;1.80;;
63016;SDS011;50274;45.640;11.756;2023-04-16T07:25:20;4.30;;;1.50;;
63016;SDS011;50274;45.640;11.756;2023-04-16T07:27:49;5.15;;;1.80;;
63016;SDS011;50274;45.640;11.756;2023-04-16T07:30:17;4.00;;;1.55;;
63016;SDS011;50274;45.640;11.756;2023-04-16T07:32:43;5.97;;;1.73;;
63016;SDS011;50274;45.640;11.756;2023-04-16T07:35:11;4.82;;;1.65;;
63016;SDS011;50274;45.640;11.756;2023-04-16T07:37:37;3.83;;;1.40;;
63016;SDS011;50274;45.640;11.756;2023-04-16T07:40:05;5.30;;;1.50;;
63016;SDS011;50274;45.640;11.756;2023-04-16T07:42:32;4.63;;;1.45;;
63016;SDS011;50274;45.640;11.756;2023-04-16T07:45:01;5.75;;;1.58;;
63016;SDS011;50274;45.640;11.756;2023-04-16T07:47:26;4.20;;;1.40;;
63016;SDS011;50274;45.640;11.756;2023-04-16T07:49:52;4.67;;;1.30;;
63016;SDS011;50274;45.640;11.756;2023-04-16T07:52:20;4.70;;;1.60;;
63016;SDS011;50274;45.640;11.756;2023-04-16T07:54:51;3.92;;;1.30;;
63016;SDS011;50274;45.640;11.756;2023-04-16T07:57:21;5.43;;;1.70;;
63016;SDS011;50274;45.640;11.756;2023-04-16T07:59:47;4.27;;;1.37;;
63016;SDS011;50274;45.640;11.756;2023-04-16T08:02:13;4.18;;;1.27;;
63016;SDS011;50274;45.640;11.756;2023-04-16T08:04:41;7.93;;;1.30;;
63016;SDS011;50274;45.640;11.756;2023-04-16T08:07:07;4.40;;;1.20;;
63016;SDS011;50274;45.640;11.756;2023-04-16T08:09:34;4.83;;;1.30;;
63016;SDS011;50274;45.640;11.756;2023-04-16T08:12:02;4.47;;;1.13;;
63016;SDS011;50274;45.640;11.756;2023-04-16T08:14:30;4.43;;;1.33;;
63016;SDS011;50274;45.640;11.756;2023-04-16T08:16:56;4.95;;;1.77;;
63016;SDS011;50274;45.640;11.756;2023-04-16T08:19:25;4.27;;;1.40;;
63016;SDS011;50274;45.640;11.756;2023-04-16T08:21:53;3.40;;;1.02;;
63016;SDS011;50274;45.640;11.756;2023-04-16T08:24:20;6.32;;;1.30;;
63016;SDS011;50274;45.640;11.756;2023-04-16T08:26:47;4.60;;;0.77;;
63016;SDS011;50274;45.640;11.756;2023-04-16T08:29:28;3.13;;;0.73;;
63016;SDS011;50274;45.640;11.756;2023-04-16T08:31:54;3.50;;;0.83;;
63016;SDS011;50274;45.640;11.756;2023-04-16T08:34:20;3.30;;;0.60;;
63016;SDS011;50274;45.640;11.756;2023-04-16T08:36:50;2.92;;;0.75;;
63016;SDS011;50274;45.640;11.756;2023-04-16T08:39:16;2.70;;;0.70;;
63016;SDS011;50274;45.640;11.756;2023-04-16T08:41:44;3.40;;;1.20;;
63016;SDS011;50274;45.640;11.756;2023-04-16T08:44:17;2.35;;;0.60;;
63016;SDS011;50274;45.640;11.756;2023-04-16T08:46:48;2.22;;;0.40;;
63016;SDS011;50274;45.640;11.756;2023-04-16T08:49:16;4.03;;;0.70;;
63016;SDS011;50274;45.640;11.756;2023-04-16T08:51:51;3.30;;;1.00;;
63016;SDS011;50274;45.640;11.756;2023-04-16T08:55:05;3.00;;;0.97;;
63016;SDS011;50274;45.640;11.756;2023-04-16T08:57:07;5.15;;;1.35;;
63016;SDS011;50274;45.640;11.756;2023-04-16T08:59:36;4.25;;;1.27;;
63016;SDS011;50274;45.640;11.756;2023-04-16T09:02:04;4.45;;;1.10;;
63016;SDS011;50274;45.640;11.756;2023-04-16T09:04:33;4.10;;;1.10;;
63016;SDS011;50274;45.640;11.756;2023-04-16T09:07:02;3.77;;;0.87;;
63016;SDS011;50274;45.640;11.756;2023-04-16T09:09:32;3.25;;;0.85;;
63016;SDS011;50274;45.640;11.756;2023-04-16T09:12:02;4.68;;;0.93;;
63016;SDS011;50274;45.640;11.756;2023-04-16T09:14:29;3.70;;;0.90;;
63016;SDS011;50274;45.640;11.756;2023-04-16T09:16:58;4.18;;;1.15;;
63016;SDS011;50274;45.640;11.756;2023-04-16T09:19:26;3.17;;;0.90;;
63016;SDS011;50274;45.640;11.756;2023-04-16T09:21:56;3.50;;;1.20;;
63016;SDS011;50274;45.640;11.756;2023-04-16T09:24:24;3.33;;;0.80;;
63016;SDS011;50274;45.640;11.756;2023-04-16T09:26:53;3.83;;;0.90;;
63016;SDS011;50274;45.640;11.756;2023-04-16T09:29:35;5.15;;;1.17;;
63016;SDS011;50274;45.640;11.756;2023-04-16T09:32:03;3.87;;;1.27;;
63016;SDS011;50274;45.640;11.756;2023-04-16T09:34:31;3.67;;;0.88;;
63016;SDS011;50274;45.640;11.756;2023-04-16T09:37:14;4.68;;;1.20;;
63016;SDS011;50274;45.640;11.756;2023-04-16T09:39:44;11.18;;;1.77;;
63016;SDS011;50274;45.640;11.756;2023-04-16T09:42:20;16.63;;;3.75;;
63016;SDS011;50274;45.640;11.756;2023-04-16T09:44:51;6.23;;;1.20;;
63016;SDS011;50274;45.640;11.756;2023-04-16T09:47:17;4.60;;;1.05;;
63016;SDS011;50274;45.640;11.756;2023-04-16T09:49:43;3.63;;;1.05;;
63016;SDS011;50274;45.640;11.756;2023-04-16T09:54:50;3.53;;;0.95;;
63016;SDS011;50274;45.640;11.756;2023-04-16T09:57:20;3.83;;;1.00;;
63016;SDS011;50274;45.640;11.756;2023-04-16T10:00:08;4.63;;;1.40;;
63016;SDS011;50274;45.640;11.756;2023-04-16T10:02:37;4.88;;;1.27;;
63016;SDS011;50274;45.640;11.756;2023-04-16T10:05:05;4.63;;;1.30;;
63016;SDS011;50274;45.640;11.756;2023-04-16T10:07:37;4.63;;;1.20;;
63016;SDS011;50274;45.640;11.756;2023-04-16T10:10:03;4.23;;;1.10;;
63016;SDS011;50274;45.640;11.756;2023-04-16T10:12:29;5.65;;;1.15;;
63016;SDS011;50274;45.640;11.756;2023-04-16T10:14:59;4.30;;;1.40;;
63016;SDS011;50274;45.640;11.756;2023-04-16T10:17:25;4.10;;;1.10;;
63016;SDS011;50274;45.640;11.756;2023-04-16T10:19:54;4.03;;;1.27;;
63016;SDS011;50274;45.640;11.756;2023-04-16T10:22:21;4.57;;;1.30;;
63016;SDS011;50274;45.640;11.756;2023-04-16T10:24:47;4.07;;;1.10;;
63016;SDS011;50274;45.640;11.756;2023-04-16T10:27:16;4.82;;;1.38;;
63016;SDS011;50274;45.640;11.756;2023-04-16T10:29:45;4.95;;;1.13;;
63016;SDS011;50274;45.640;11.756;2023-04-16T10:32:15;4.03;;;1.20;;
63016;SDS011;50274;45.640;11.756;2023-04-16T10:34:45;4.00;;;1.15;;
63016;SDS011;50274;45.640;11.756;2023-04-16T10:37:12;3.78;;;1.00;;
63016;SDS011;50274;45.640;11.756;2023-04-16T10:39:39;4.35;;;1.00;;
63016;SDS011;50274;45.640;11.756;2023-04-16T10:42:09;6.03;;;1.03;;
63016;SDS011;50274;45.640;11.756;2023-04-16T10:44:36;4.53;;;1.02;;
63016;SDS011;50274;45.640;11.756;2023-04-16T10:47:02;3.88;;;1.00;;
63016;SDS011;50274;45.640;11.756;2023-04-16T10:49:35;7.20;;;2.42;;
63016;SDS011;50274;45.640;11.756;2023-04-16T10:52:06;4.90;;;1.47;;
63016;SDS011;50274;45.640;11.756;2023-04-16T10:54:35;3.90;;;1.40;;
63016;SDS011;50274;45.640;11.756;2023-04-16T10:57:04;3.97;;;1.00;;
63016;SDS011;50274;45.640;11.756;2023-04-16T10:59:33;4.10;;;1.20;;
63016;SDS011;50274;45.640;11.756;2023-04-16T11:02:01;6.50;;;1.13;;
63016;SDS011;50274;45.640;11.756;2023-04-16T11:04:36;3.00;;;0.80;;
63016;SDS011;50274;45.640;11.756;2023-04-16T11:12:11;4.43;;;0.82;;
63016;SDS011;50274;45.640;11.756;2023-04-16T11:14:41;4.30;;;1.07;;
63016;SDS011;50274;45.640;11.756;2023-04-16T11:17:07;3.30;;;0.85;;
63016;SDS011;50274;45.640;11.756;2023-04-16T11:19:37;3.17;;;0.60;;
63016;SDS011;50274;45.640;11.756;2023-04-16T11:22:03;2.85;;;0.57;;
63016;SDS011;50274;45.640;11.756;2023-04-16T11:24:29;2.90;;;0.63;;
63016;SDS011;50274;45.640;11.756;2023-04-16T11:26:56;3.77;;;0.83;;
63016;SDS011;50274;45.640;11.756;2023-04-16T11:29:21;5.15;;;1.58;;
63016;SDS011;50274;45.640;11.756;2023-04-16T11:31:51;7.65;;;2.00;;
63016;SDS011;50274;45.640;11.756;2023-04-16T11:34:18;3.70;;;0.90;;
63016;SDS011;50274;45.640;11.756;2023-04-16T11:36:48;3.97;;;0.87;;
63016;SDS011;50274;45.640;11.756;2023-04-16T11:39:15;6.55;;;1.83;;
63016;SDS011;50274;45.640;11.756;2023-04-16T11:41:42;4.72;;;1.25;;
63016;SDS011;50274;45.640;11.756;2023-04-16T11:44:21;7.25;;;1.40;;
63016;SDS011;50274;45.640;11.756;2023-04-16T11:46:49;4.28;;;0.88;;
63016;SDS011;50274;45.640;11.756;2023-04-16T11:49:16;6.93;;;1.30;;
63016;SDS011;50274;45.640;11.756;2023-04-16T11:51:51;3.22;;;0.80;;
63016;SDS011;50274;45.640;11.756;2023-04-16T11:54:21;3.22;;;0.70;;
63016;SDS011;50274;45.640;11.756;2023-04-16T11:56:48;3.35;;;0.70;;
63016;SDS011;50274;45.640;11.756;2023-04-16T11:59:16;2.33;;;0.52;;
63016;SDS011;50274;45.640;11.756;2023-04-16T12:01:50;3.33;;;0.60;;
63016;SDS011;50274;45.640;11.756;2023-04-16T12:04:21;3.58;;;0.77;;
63016;SDS011;50274;45.640;11.756;2023-04-16T12:10:03;3.63;;;0.70;;
63016;SDS011;50274;45.640;11.756;2023-04-16T12:12:31;2.70;;;0.70;;
63016;SDS011;50274;45.640;11.756;2023-04-16T12:14:57;3.07;;;0.70;;
63016;SDS011;50274;45.640;11.756;2023-04-16T12:17:27;2.88;;;0.77;;
63016;SDS011;50274;45.640;11.756;2023-04-16T12:19:56;3.10;;;0.70;;
63016;SDS011;50274;45.640;11.756;2023-04-16T12:22:28;2.83;;;0.70;;
63016;SDS011;50274;45.640;11.756;2023-04-16T12:24:58;3.27;;;0.50;;
63016;SDS011;50274;45.640;11.756;2023-04-16T12:27:39;2.85;;;0.60;;
63016;SDS011;50274;45.640;11.756;2023-04-16T12:30:14;5.28;;;0.80;;
63016;SDS011;50274;45.640;11.756;2023-04-16T12:32:42;2.50;;;0.50;;
63016;SDS011;50274;45.640;11.756;2023-04-16T12:35:12;2.65;;;0.68;;
63016;SDS011;50274;45.640;11.756;2023-04-16T12:37:38;2.77;;;0.60;;
63016;SDS011;50274;45.640;11.756;2023-04-16T12:40:04;4.88;;;0.60;;
63016;SDS011;50274;45.640;11.756;2023-04-16T12:42:36;3.50;;;0.60;;
63016;SDS011;50274;45.640;11.756;2023-04-16T12:45:10;2.88;;;0.60;;
63016;SDS011;50274;45.640;11.756;2023-04-16T12:47:36;2.13;;;0.50;;
63016;SDS011;50274;45.640;11.756;2023-04-16T12:50:02;3.03;;;0.70;;
63016;SDS011;50274;45.640;11.756;2023-04-16T12:52:28;2.63;;;0.50;;
63016;SDS011;50274;45.640;11.756;2023-04-16T12:54:54;2.80;;;0.50;;
63016;SDS011;50274;45.640;11.756;2023-04-16T12:57:20;2.40;;;0.67;;
63016;SDS011;50274;45.640;11.756;2023-04-16T12:59:47;2.70;;;0.47;;
63016;SDS011;50274;45.640;11.756;2023-04-16T13:02:13;2.55;;;0.50;;
63016;SDS011;50274;45.640;11.756;2023-04-16T13:04:39;3.00;;;0.70;;
63016;SDS011;50274;45.640;11.756;2023-04-16T13:07:05;2.22;;;0.40;;
63016;SDS011;50274;45.640;11.756;2023-04-16T13:09:32;2.15;;;0.47;;
63016;SDS011;50274;45.640;11.756;2023-04-16T13:11:57;2.85;;;0.60;;
63016;SDS011;50274;45.640;11.756;2023-04-16T13:14:23;2.47;;;0.50;;
63016;SDS011;50274;45.640;11.756;2023-04-16T13:16:50;2.45;;;0.50;;
63016;SDS011;50274;45.640;11.756;2023-04-16T13:19:16;2.05;;;0.52;;
63016;SDS011;50274;45.640;11.756;2023-04-16T13:21:43;2.77;;;0.50;;
63016;SDS011;50274;45.640;11.756;2023-04-16T13:24:09;2.42;;;0.45;;
63016;SDS011;50274;45.640;11.756;2023-04-16T13:26:34;3.30;;;0.45;;
63016;SDS011;50274;45.640;11.756;2023-04-16T13:29:00;3.17;;;0.77;;
63016;SDS011;50274;45.640;11.756;2023-04-16T13:31:26;2.28;;;0.50;;
63016;SDS011;50274;45.640;11.756;2023-04-16T13:33:52;4.82;;;0.60;;
63016;SDS011;50274;45.640;11.756;2023-04-16T13:36:18;2.40;;;0.60;;
63016;SDS011;50274;45.640;11.756;2023-04-16T13:38:44;3.20;;;0.90;;
63016;SDS011;50274;45.640;11.756;2023-04-16T13:41:10;3.42;;;1.05;;
63016;SDS011;50274;45.640;11.756;2023-04-16T13:43:36;3.22;;;0.90;;
63016;SDS011;50274;45.640;11.756;2023-04-16T13:46:05;4.43;;;1.23;;
63016;SDS011;50274;45.640;11.756;2023-04-16T13:48:31;4.03;;;1.30;;
63016;SDS011;50274;45.640;11.756;2023-04-16T13:50:57;5.10;;;1.30;;
63016;SDS011;50274;45.640;11.756;2023-04-16T13:53:23;3.27;;;0.90;;
63016;SDS011;50274;45.640;11.756;2023-04-16T13:55:49;2.95;;;0.82;;
63016;SDS011;50274;45.640;11.756;2023-04-16T13:58:15;4.18;;;1.05;;
63016;SDS011;50274;45.640;11.756;2023-04-16T14:00:41;5.28;;;1.48;;
63016;SDS011;50274;45.640;11.756;2023-04-16T14:03:07;3.43;;;1.20;;
63016;SDS011;50274;45.640;11.756;2023-04-16T14:05:33;5.30;;;1.42;;
63016;SDS011;50274;45.640;11.756;2023-04-16T14:07:59;3.83;;;1.13;;
63016;SDS011;50274;45.640;11.756;2023-04-16T14:10:24;4.00;;;1.10;;
63016;SDS011;50274;45.640;11.756;2023-04-16T14:12:50;4.13;;;1.35;;
63016;SDS011;50274;45.640;11.756;2023-04-16T14:15:16;3.20;;;0.93;;
63016;SDS011;50274;45.640;11.756;2023-04-16T14:17:43;3.33;;;1.10;;
63016;SDS011;50274;45.640;11.756;2023-04-16T14:20:09;4.03;;;1.17;;
63016;SDS011;50274;45.640;11.756;2023-04-16T14:22:37;6.03;;;1.75;;
63016;SDS011;50274;45.640;11.756;2023-04-16T14:25:03;5.40;;;2.42;;
63016;SDS011;50274;45.640;11.756;2023-04-16T14:27:30;3.85;;;1.30;;
63016;SDS011;50274;45.640;11.756;2023-04-16T14:29:56;3.70;;;1.10;;
63016;SDS011;50274;45.640;11.756;2023-04-16T14:32:22;5.72;;;1.23;;
63016;SDS011;50274;45.640;11.756;2023-04-16T14:34:48;4.25;;;1.23;;
63016;SDS011;50274;45.640;11.756;2023-04-16T14:37:14;4.00;;;1.10;;
63016;SDS011;50274;45.640;11.756;2023-04-16T14:39:41;3.63;;;1.00;;
63016;SDS011;50274;45.640;11.756;2023-04-16T14:42:07;3.78;;;1.00;;
63016;SDS011;50274;45.640;11.756;2023-04-16T14:44:33;4.77;;;1.13;;
63016;SDS011;50274;45.640;11.756;2023-04-16T14:46:59;4.10;;;1.10;;